Time;durP1;ratioP1;P1;durP2;ratioP2;P2;SDS_P1;SDS_P2;PMS_P1;PMS_P2;Temp;Humidity;BMP_temperature;BMP_pressure;BME280_temperature;BME280_humidity;BME280_pressure;Samples;Min_cycle;Max_cycle;Signal;HPM_P1;HPM_P2
2022/11/18 00:01:11;;;;;;;6.07;2.30;;;;;;;6.85;100.00;99480.88;5073527;28;20047;-79
2022/11/18 00:03:38;;;;;;;6.25;2.17;;;;;;;6.86;100.00;99486.97;5074355;28;20491;-80
2022/11/18 00:06:04;;;;;;;7.53;2.05;;;;;;;6.84;100.00;99481.75;5065810;28;20158;-79
2022/11/18 00:08:30;;;;;;;8.85;2.35;;;;;;;6.82;100.00;99474.81;5073000;28;20042;-79
2022/11/18 00:10:56;;;;;;;5.47;2.03;;;;;;;6.81;100.00;99481.00;5073419;28;20033;-79
2022/11/18 00:16:11;;;;;;;8.75;1.95;;;;;;;6.78;100.00;99486.34;5074326;28;20055;-79
2022/11/18 00:18:38;;;;;;;6.82;2.03;;;;;;;6.77;100.00;99489.88;5059205;28;20388;-79
2022/11/18 00:21:08;;;;;;;8.23;2.40;;;;;;;6.74;100.00;99488.19;5074512;28;20453;-79
2022/11/18 00:23:34;;;;;;;5.53;2.22;;;;;;;6.74;100.00;99490.81;5062224;28;20139;-79
2022/11/18 00:26:08;;;;;;;6.95;2.35;;;;;;;6.71;100.00;99501.44;5058674;28;20072;-79
2022/11/18 00:28:34;;;;;;;6.72;2.63;;;;;;;6.70;100.00;99502.34;5074010;28;20033;-79
2022/11/18 00:31:07;;;;;;;9.93;2.20;;;;;;;6.69;100.00;99508.50;5074000;28;20503;-79
2022/11/18 00:33:33;;;;;;;4.78;2.40;;;;;;;6.64;100.00;99505.13;5072518;28;20090;-79
2022/11/18 00:35:59;;;;;;;9.02;2.38;;;;;;;6.62;100.00;99515.69;5061673;28;20036;-79
2022/11/18 00:38:25;;;;;;;6.03;2.15;;;;;;;6.62;100.00;99514.81;5073608;28;20411;-79
2022/11/18 00:41:09;;;;;;;6.15;2.30;;;;;;;6.62;100.00;99515.69;5072690;28;20036;-79
2022/11/18 00:43:36;;;;;;;7.03;2.72;;;;;;;6.61;100.00;99521.84;5056209;28;20037;-79
2022/11/18 00:46:01;;;;;;;6.78;2.42;;;;;;;6.60;100.00;99517.50;5067505;28;20036;-79
2022/11/18 00:48:27;;;;;;;6.80;2.40;;;;;;;6.58;100.00;99521.94;5072020;28;20048;-79
2022/11/18 00:50:55;;;;;;;9.90;3.00;;;;;;;6.59;100.00;99525.44;5073860;28;20421;-79
2022/11/18 00:53:22;;;;;;;8.45;2.20;;;;;;;6.58;100.00;99528.97;5072215;28;20039;-79
2022/11/18 00:55:48;;;;;;;11.68;2.42;;;;;;;6.59;100.00;99521.03;5068587;28;20100;-79
2022/11/18 00:58:14;;;;;;;5.25;2.40;;;;;;;6.62;100.00;99536.72;5067507;28;20029;-79
2022/11/18 01:00:49;;;;;;;5.85;2.25;;;;;;;6.64;100.00;99537.56;5073737;28;20460;-79
2022/11/18 01:03:15;;;;;;;9.07;2.15;;;;;;;6.65;100.00;99547.19;5072051;28;20036;-79
2022/11/18 01:05:40;;;;;;;6.78;2.55;;;;;;;6.67;100.00;99553.25;5072096;28;20033;-79
2022/11/18 01:08:08;;;;;;;9.07;2.28;;;;;;;6.68;100.00;99552.34;5073320;28;20094;-79
2022/11/18 01:10:35;;;;;;;11.25;2.35;;;;;;;6.71;100.00;99550.56;5073485;28;20033;-79
2022/11/18 01:13:19;;;;;;;4.25;1.90;;;;;;;6.74;100.00;99553.09;5071984;28;20033;-79
2022/11/18 01:15:51;;;;;;;6.72;1.90;;;;;;;6.75;100.00;99550.44;5058194;28;20348;-79
2022/11/18 01:18:20;;;;;;;6.80;2.30;;;;;;;6.78;100.00;99565.28;5055351;28;20037;-79
2022/11/18 01:20:47;;;;;;;8.38;2.75;;;;;;;6.78;100.00;99560.88;5071260;28;20028;-79
2022/11/18 01:23:13;;;;;;;5.05;2.40;;;;;;;6.81;100.00;99568.69;5063481;28;20093;-79
2022/11/18 01:25:41;;;;;;;5.97;2.38;;;;;;;6.83;100.00;99572.13;5057391;28;20073;-79
2022/11/18 01:28:06;;;;;;;6.13;2.30;;;;;;;6.82;100.00;99575.66;5088389;28;20044;-79
2022/11/18 01:30:34;;;;;;;6.95;2.28;;;;;;;6.83;100.00;99569.50;5059983;28;20338;-79
2022/11/18 01:33:00;;;;;;;8.52;2.50;;;;;;;6.83;100.00;99571.28;5069545;28;20081;-79
2022/11/18 01:35:26;;;;;;;10.45;2.30;;;;;;;6.85;100.00;99580.84;5064394;28;20067;-79
2022/11/18 01:37:51;;;;;;;8.70;2.15;;;;;;;6.87;100.00;99583.44;5055467;28;20053;-80
2022/11/18 01:40:17;;;;;;;5.95;2.42;;;;;;;6.88;100.00;99585.19;5053040;28;20061;-79
2022/11/18 01:42:43;;;;;;;7.50;2.30;;;;;;;6.91;100.00;99589.50;5054895;28;20457;-79
2022/11/18 01:45:09;;;;;;;9.70;2.70;;;;;;;6.94;100.00;99599.94;5048466;28;20120;-79
2022/11/18 01:47:41;;;;;;;11.00;2.83;;;;;;;6.93;100.00;99592.94;5062466;28;20040;-79
2022/11/18 01:50:07;;;;;;;5.57;1.90;;;;;;;6.97;100.00;99603.31;5058905;28;20357;-79
2022/11/18 01:52:34;;;;;;;4.93;2.20;;;;;;;6.97;100.00;99599.84;5059251;28;20064;-79
2022/11/18 01:55:06;;;;;;;3.22;2.20;;;;;;;6.98;100.00;99602.44;5058212;28;20060;-79
2022/11/18 01:57:32;;;;;;;5.80;2.30;;;;;;;6.97;100.00;99600.69;5053340;28;20040;-79
2022/11/18 02:00:02;;;;;;;5.75;2.40;;;;;;;7.01;100.00;99606.75;5070325;28;20024;-79
2022/11/18 02:02:34;;;;;;;5.28;2.30;;;;;;;7.01;100.00;99604.97;5059951;28;20037;-79
2022/11/18 02:05:06;;;;;;;6.18;2.22;;;;;;;7.02;100.00;99604.09;5059104;28;20079;-79
2022/11/18 02:07:35;;;;;;;7.00;2.63;;;;;;;7.02;100.00;99609.38;5070030;28;20107;-79
2022/11/18 02:10:04;;;;;;;7.25;2.45;;;;;;;7.05;100.00;99611.03;5055418;28;20017;-79
2022/11/18 02:12:29;;;;;;;5.65;2.35;;;;;;;7.07;100.00;99615.34;5056383;28;20033;-79
2022/11/18 02:14:55;;;;;;;5.25;2.17;;;;;;;7.08;100.00;99613.59;5051845;28;20047;-79
2022/11/18 02:17:34;;;;;;;6.30;2.40;;;;;;;7.10;100.00;99619.69;5055167;28;20033;-79
2022/11/18 02:20:12;;;;;;;6.93;2.25;;;;;;;7.11;100.00;99621.38;5057862;28;20037;-79
2022/11/18 02:23:11;;;;;;;9.40;3.13;;;;;;;7.15;100.00;99620.41;5056113;28;20444;-79
2022/11/18 02:25:58;;;;;;;6.30;2.30;;;;;;;7.14;100.00;99628.34;5055136;28;20362;-79
2022/11/18 02:28:36;;;;;;;5.93;2.40;;;;;;;7.15;100.00;99633.56;5056773;28;20129;-80
2022/11/18 02:31:10;;;;;;;7.38;2.45;;;;;;;7.17;100.00;99630.88;5058751;28;20032;-79
2022/11/18 02:33:44;;;;;;;11.15;2.35;;;;;;;7.16;100.00;99634.44;5055120;28;20063;-79
2022/11/18 02:36:36;;;;;;;4.72;2.13;;;;;;;7.19;100.00;99635.19;5044876;28;20036;-79
2022/11/18 02:39:09;;;;;;;3.50;2.05;;;;;;;7.17;100.00;99634.41;5053503;28;20406;-79
2022/11/18 02:41:38;;;;;;;4.28;2.10;;;;;;;7.17;100.00;99634.41;5058767;28;20468;-79
2022/11/18 02:44:14;;;;;;;6.38;2.40;;;;;;;7.20;100.00;99644.00;5070670;28;20017;-79
2022/11/18 02:46:44;;;;;;;7.38;2.60;;;;;;;7.22;100.00;99650.06;5066570;28;20051;-79
2022/11/18 02:49:17;;;;;;;8.50;2.22;;;;;;;7.22;100.00;99650.94;5070502;28;20032;-79
2022/11/18 02:51:46;;;;;;;6.68;2.22;;;;;;;7.23;100.00;99652.66;5072492;28;20145;-79
2022/11/18 02:54:14;;;;;;;4.72;2.38;;;;;;;7.25;100.00;99652.63;5081962;28;20043;-79
2022/11/18 02:56:42;;;;;;;6.63;2.53;;;;;;;7.25;100.00;99652.63;5067037;28;20491;-79
2022/11/18 02:59:07;;;;;;;5.43;2.38;;;;;;;7.24;100.00;99651.72;5070541;28;20032;-79
2022/11/18 03:01:34;;;;;;;8.20;2.55;;;;;;;7.28;100.00;99660.44;5069338;28;20051;-80
2022/11/18 03:04:00;;;;;;;4.68;1.98;;;;;;;7.28;100.00;99657.81;5069794;28;20032;-79
2022/11/18 03:06:35;;;;;;;6.25;2.40;;;;;;;7.29;100.00;99656.88;5069468;28;20036;-79
2022/11/18 03:09:03;;;;;;;6.80;2.25;;;;;;;7.29;100.00;99663.03;5066619;28;20206;-79
2022/11/18 03:11:44;;;;;;;6.40;2.22;;;;;;;7.30;100.00;99659.47;5065570;28;20041;-79
2022/11/18 03:14:37;;;;;;;8.38;2.53;;;;;;;7.33;100.00;99669.06;5062376;28;20040;-79
2022/11/18 03:17:10;;;;;;;4.70;2.22;;;;;;;7.32;100.00;99662.94;5070453;28;20025;-79
2022/11/18 03:19:54;;;;;;;6.55;1.80;;;;;;;7.36;100.00;99665.50;5068265;28;20020;-79
2022/11/18 03:22:39;;;;;;;10.35;2.30;;;;;;;7.37;100.00;99673.34;5071045;28;20039;-79
2022/11/18 03:25:15;;;;;;;5.07;2.20;;;;;;;7.37;100.00;99673.34;5064927;28;20024;-79
2022/11/18 03:28:01;;;;;;;6.28;2.50;;;;;;;7.40;100.00;99678.53;5069882;28;20107;-79
2022/11/18 03:30:29;;;;;;;4.00;2.10;;;;;;;7.41;100.00;99684.66;5070399;28;20431;-79
2022/11/18 03:33:01;;;;;;;5.60;2.45;;;;;;;7.43;100.00;99685.47;5067485;28;20013;-79
2022/11/18 03:35:29;;;;;;;12.43;2.38;;;;;;;7.44;100.00;99688.09;5071379;28;20039;-79
2022/11/18 03:38:03;;;;;;;5.30;2.30;;;;;;;7.43;100.00;99688.97;5066235;28;20388;-79
2022/11/18 03:40:31;;;;;;;5.20;2.35;;;;;;;7.44;100.00;99689.84;5064359;28;20398;-80
2022/11/18 03:43:14;;;;;;;6.13;2.28;;;;;;;7.45;100.00;99694.22;5072702;28;20038;-79
2022/11/18 03:45:50;;;;;;;7.03;2.30;;;;;;;7.45;100.00;99700.34;5070373;28;20456;-79
2022/11/18 03:48:25;;;;;;;3.88;1.98;;;;;;;7.45;100.00;99710.03;5067257;28;20044;-79
2022/11/18 03:50:59;;;;;;;5.47;2.30;;;;;;;7.48;100.00;99704.66;5060687;28;20112;-79
2022/11/18 03:53:29;;;;;;;9.20;2.70;;;;;;;7.47;100.00;99708.22;5063291;28;20657;-79
2022/11/18 03:56:05;;;;;;;7.30;2.60;;;;;;;7.50;100.00;99711.63;5063648;28;20099;-79
2022/11/18 03:58:40;;;;;;;4.97;2.20;;;;;;;7.51;100.00;99715.97;5071597;28;20029;-79
2022/11/18 04:01:20;;;;;;;7.05;2.53;;;;;;;7.53;100.00;99718.56;5059209;28;20507;-79
2022/11/18 04:03:46;;;;;;;7.78;2.58;;;;;;;7.52;100.00;99727.41;5051146;28;20032;-79
2022/11/18 04:06:23;;;;;;;7.53;2.85;;;;;;;7.51;100.00;99725.66;5072807;28;20041;-79
2022/11/18 04:08:56;;;;;;;7.35;2.40;;;;;;;7.50;100.00;99735.31;5069727;28;20036;-79
2022/11/18 04:14:17;;;;;;;5.50;2.30;;;;;;;7.49;100.00;99741.50;5054303;28;20029;-79
2022/11/18 04:16:44;;;;;;;5.03;2.30;;;;;;;7.49;100.00;99735.34;5058157;28;20074;-79
2022/11/18 04:19:10;;;;;;;7.72;2.40;;;;;;;7.48;100.00;99737.13;5052386;28;20048;-79
2022/11/18 04:21:36;;;;;;;3.70;1.98;;;;;;;7.47;100.00;99745.09;5050919;28;20033;-79
2022/11/18 04:24:01;;;;;;;6.45;2.30;;;;;;;7.48;100.00;99744.19;5054747;28;20404;-79
2022/11/18 04:26:27;;;;;;;5.43;2.20;;;;;;;7.46;100.00;99754.75;5065657;28;20021;-79
2022/11/18 04:28:52;;;;;;;6.38;2.50;;;;;;;7.43;100.00;99746.94;5062154;28;20020;-79
2022/11/18 04:31:18;;;;;;;7.28;2.15;;;;;;;7.42;100.00;99753.13;5065430;28;20120;-79
2022/11/18 04:33:43;;;;;;;7.00;2.40;;;;;;;7.40;100.00;99754.91;5073345;28;20144;-79
2022/11/18 04:36:09;;;;;;;6.20;2.45;;;;;;;7.38;100.00;99755.88;5058226;28;20047;-79
2022/11/18 04:38:34;;;;;;;7.75;2.33;;;;;;;7.35;100.00;99762.06;5068560;28;20075;-79
2022/11/18 04:40:59;;;;;;;10.43;2.60;;;;;;;7.30;100.00;99759.56;5068665;28;20083;-79
2022/11/18 04:43:25;;;;;;;5.47;2.03;;;;;;;7.28;100.00;99766.63;5058962;28;20032;-79
2022/11/18 04:45:50;;;;;;;8.63;2.38;;;;;;;7.25;100.00;99769.34;5066467;28;20454;-79
2022/11/18 04:48:16;;;;;;;9.02;2.30;;;;;;;7.22;100.00;99764.16;5055791;28;20539;-79
2022/11/18 04:50:41;;;;;;;3.53;1.90;;;;;;;7.18;100.00;99774.81;5052697;28;20037;-79
2022/11/18 04:53:07;;;;;;;8.77;2.30;;;;;;;7.15;100.00;99775.75;5086944;28;20036;-79
2022/11/18 04:55:35;;;;;;;6.93;2.40;;;;;;;7.12;100.00;99778.44;5066882;28;20128;-79
2022/11/18 04:58:00;;;;;;;12.75;2.50;;;;;;;7.07;100.00;99785.59;5084269;28;20032;-79
2022/11/18 05:00:26;;;;;;;5.90;2.25;;;;;;;7.05;100.00;99787.41;5065810;28;20454;-79
2022/11/18 05:02:52;;;;;;;5.75;2.35;;;;;;;7.02;100.00;99782.19;5058189;28;20039;-79
2022/11/18 05:05:17;;;;;;;5.72;2.40;;;;;;;6.99;100.00;99787.53;5056222;28;20349;-79
2022/11/18 05:07:43;;;;;;;7.00;2.30;;;;;;;6.94;100.00;99795.53;5053775;28;20033;-79
2022/11/18 05:10:08;;;;;;;6.53;2.08;;;;;;;6.94;100.00;99792.06;5080521;28;20441;-79
2022/11/18 05:12:49;;;;;;;3.28;2.03;;;;;;;6.87;100.00;99800.13;5062086;28;20072;-79
2022/11/18 05:15:16;;;;;;;6.15;2.20;;;;;;;6.86;100.00;99798.38;5062609;28;20489;-79
2022/11/18 05:17:42;;;;;;;6.50;2.22;;;;;;;6.83;100.00;99808.09;5062266;28;20136;-79
2022/11/18 05:20:08;;;;;;;7.80;2.42;;;;;;;6.80;100.00;99811.69;5073304;28;20163;-79
2022/11/18 05:22:34;;;;;;;7.75;2.33;;;;;;;6.75;100.00;99812.66;5068690;28;20484;-79
2022/11/18 05:24:59;;;;;;;4.63;2.47;;;;;;;6.71;100.00;99818.91;5064384;28;20044;-79
2022/11/18 05:27:25;;;;;;;4.53;2.40;;;;;;;6.68;100.00;99815.44;5077785;28;20060;-79
2022/11/18 05:29:51;;;;;;;4.57;2.22;;;;;;;6.63;100.00;99817.31;5090869;28;20032;-79
2022/11/18 05:32:17;;;;;;;7.50;2.83;;;;;;;6.60;100.00;99821.75;5091186;28;20762;-79
2022/11/18 05:34:42;;;;;;;6.00;2.50;;;;;;;6.56;100.00;99823.59;5077849;28;20033;-79
2022/11/18 05:37:08;;;;;;;4.57;2.55;;;;;;;6.54;100.00;99835.06;5061043;28;20435;-79
2022/11/18 05:39:33;;;;;;;7.70;2.92;;;;;;;6.52;100.00;99828.97;5082897;28;20052;-79
2022/11/18 05:44:44;;;;;;;7.53;2.72;;;;;;;6.44;100.00;99840.50;5055319;28;20059;-78
2022/11/18 05:47:09;;;;;;;9.00;3.33;;;;;;;6.42;100.00;99836.19;5061875;28;20045;-79
2022/11/18 05:49:35;;;;;;;6.25;3.03;;;;;;;6.41;100.00;99840.56;5073257;28;20020;-74
2022/11/18 05:52:01;;;;;;;8.07;2.80;;;;;;;6.39;100.00;99844.13;5072019;28;20483;-74
2022/11/18 05:54:26;;;;;;;5.80;2.97;;;;;;;6.36;100.00;99846.84;5073017;28;20413;-79
2022/11/18 05:56:52;;;;;;;9.10;2.78;;;;;;;6.36;100.00;99849.47;5070522;28;20051;-79
2022/11/18 05:59:17;;;;;;;9.65;3.47;;;;;;;6.33;100.00;99852.13;5079206;28;20047;-79
2022/11/18 06:01:58;;;;;;;8.32;3.17;;;;;;;6.33;100.00;99855.66;5060907;28;20036;-79
2022/11/18 06:04:38;;;;;;;6.85;3.17;;;;;;;6.32;100.00;99863.56;5069753;28;20035;-79
2022/11/18 06:07:17;;;;;;;10.02;3.28;;;;;;;6.29;100.00;99864.50;5068281;28;20032;-78
2022/11/18 06:09:47;;;;;;;6.00;2.75;;;;;;;6.29;100.00;99866.25;5071093;28;20380;-79
2022/11/18 06:12:18;;;;;;;9.27;3.22;;;;;;;6.27;100.00;99870.69;5073015;28;20299;-79
2022/11/18 06:14:55;;;;;;;10.95;3.28;;;;;;;6.24;100.00;99875.09;5055789;28;20039;-79
2022/11/18 06:17:27;;;;;;;7.70;2.65;;;;;;;6.24;100.00;99882.13;5063712;28;20484;-79
2022/11/18 06:19:53;;;;;;;9.55;3.05;;;;;;;6.21;100.00;99882.19;5079629;28;20031;-79
2022/11/18 06:22:19;;;;;;;7.20;2.95;;;;;;;6.18;100.00;99883.13;5071763;28;20186;-79
2022/11/18 06:24:45;;;;;;;7.80;2.97;;;;;;;6.16;100.00;99891.94;5046793;28;20021;-79
2022/11/18 06:27:12;;;;;;;8.82;4.20;;;;;;;6.15;100.00;99898.06;5072281;28;20131;-78
2022/11/18 06:29:37;;;;;;;8.93;3.08;;;;;;;6.13;100.00;99902.47;5070429;28;20033;-78
2022/11/18 06:32:03;;;;;;;6.88;3.05;;;;;;;6.07;100.00;99895.59;5060439;28;20416;-79
2022/11/18 06:34:28;;;;;;;8.15;2.90;;;;;;;6.08;100.00;99899.06;5061670;28;20051;-79
2022/11/18 06:36:54;;;;;;;7.65;3.30;;;;;;;6.08;100.00;99905.19;5067657;28;20418;-79
2022/11/18 06:39:20;;;;;;;7.53;3.65;;;;;;;6.09;100.00;99900.81;5066194;28;20072;-78
2022/11/18 06:41:45;;;;;;;7.47;3.35;;;;;;;6.13;100.00;99902.47;5069221;28;20039;-79
2022/11/18 06:44:11;;;;;;;12.18;3.55;;;;;;;6.12;100.00;99908.66;5072760;28;20068;-79
2022/11/18 06:46:56;;;;;;;7.13;3.28;;;;;;;6.13;100.00;99916.50;5072037;28;20040;-79
2022/11/18 06:49:26;;;;;;;8.93;3.83;;;;;;;6.15;100.00;99909.44;5065817;28;20155;-79
2022/11/18 06:51:52;;;;;;;8.27;3.25;;;;;;;6.14;100.00;99915.59;5072515;28;20024;-78
2022/11/18 06:54:18;;;;;;;15.10;4.07;;;;;;;6.16;100.00;99923.47;5061114;28;20106;-78
2022/11/18 06:56:44;;;;;;;10.85;3.38;;;;;;;6.16;100.00;99934.00;5061747;28;20461;-78
2022/11/18 06:59:09;;;;;;;5.97;3.40;;;;;;;6.14;100.00;99936.63;5069230;28;20111;-79
2022/11/18 07:01:38;;;;;;;6.55;3.72;;;;;;;6.15;100.00;99943.63;5080692;28;20123;-79
2022/11/18 07:04:04;;;;;;;9.32;3.38;;;;;;;6.14;100.00;99952.41;5070390;28;20112;-78
2022/11/18 07:06:32;;;;;;;8.00;3.78;;;;;;;6.13;100.00;99947.16;5059875;28;20051;-78
2022/11/18 07:09:04;;;;;;;6.65;3.75;;;;;;;6.14;100.00;99947.16;5071232;28;20047;-79
2022/11/18 07:11:30;;;;;;;8.13;3.15;;;;;;;6.14;100.00;99957.66;5072896;28;20083;-78
2022/11/18 07:13:55;;;;;;;8.88;3.33;;;;;;;6.14;100.00;99952.41;5062355;28;20109;-78
2022/11/18 07:16:23;;;;;;;9.48;3.58;;;;;;;6.17;100.00;99964.63;5065086;28;20035;-78
2022/11/18 07:18:50;;;;;;;10.73;3.67;;;;;;;6.16;100.00;99970.78;5066856;28;20040;-78
2022/11/18 07:21:18;;;;;;;6.20;3.13;;;;;;;6.16;100.00;99955.88;5063855;28;20483;-78
2022/11/18 07:23:44;;;;;;;7.80;3.60;;;;;;;6.23;100.00;99975.03;5068058;28;20172;-79
2022/11/18 07:26:10;;;;;;;7.75;4.13;;;;;;;6.22;100.00;99979.41;5055068;28;20047;-79
2022/11/18 07:28:36;;;;;;;8.25;4.10;;;;;;;6.23;100.00;99972.38;5069569;28;20024;-78
2022/11/18 07:31:10;;;;;;;10.73;3.95;;;;;;;6.26;100.00;99980.25;5057492;28;20064;-78
2022/11/18 07:33:36;;;;;;;12.10;4.32;;;;;;;6.25;100.00;99981.13;5066012;28;20025;-78
2022/11/18 07:36:04;;;;;;;7.28;3.83;;;;;;;6.26;100.00;99985.50;5055253;28;20025;-78
2022/11/18 07:38:29;;;;;;;8.15;4.35;;;;;;;6.29;100.00;99992.47;5053100;28;20396;-79
2022/11/18 07:41:01;;;;;;;8.52;4.10;;;;;;;6.28;100.00;99999.50;5049207;28;20043;-78
2022/11/18 07:43:26;;;;;;;7.10;3.60;;;;;;;6.29;100.00;99998.59;5052730;28;20037;-79
2022/11/18 07:45:52;;;;;;;11.32;4.68;;;;;;;6.30;100.00;99999.44;5049858;28;20413;-78
2022/11/18 07:48:17;;;;;;;10.98;3.72;;;;;;;6.29;100.00;100013.50;5048172;28;20127;-78
2022/11/18 07:50:43;;;;;;;8.07;3.75;;;;;;;6.28;100.00;100001.25;5057504;28;20401;-78
2022/11/18 07:53:09;;;;;;;9.98;4.00;;;;;;;6.28;100.00;100009.13;5054143;28;20106;-78
2022/11/18 07:55:34;;;;;;;9.45;3.70;;;;;;;6.28;100.00;100011.75;5049228;28;20104;-78
2022/11/18 07:57:59;;;;;;;9.25;3.10;;;;;;;6.28;100.00;100017.91;5053519;28;20060;-74
2022/11/18 08:00:25;;;;;;;9.77;3.65;;;;;;;6.28;100.00;100015.28;5064390;28;20102;-74
2022/11/18 08:02:50;;;;;;;12.35;4.03;;;;;;;6.30;100.00;100023.97;5068508;28;20480;-74
2022/11/18 08:05:16;;;;;;;7.40;3.50;;;;;;;6.33;100.00;100030.94;5084082;28;20032;-74
2022/11/18 08:07:42;;;;;;;9.82;3.58;;;;;;;6.35;100.00;100021.28;5088653;28;20040;-74
2022/11/18 08:10:10;;;;;;;8.95;4.00;;;;;;;6.39;100.00;100029.09;5067984;28;20020;-74
2022/11/18 08:12:35;;;;;;;7.80;3.95;;;;;;;6.43;100.00;100024.66;5087704;28;20059;-74
2022/11/18 08:15:01;;;;;;;6.32;3.28;;;;;;;6.47;100.00;100036.84;5075029;28;20401;-74
2022/11/18 08:17:27;;;;;;;12.57;3.80;;;;;;;6.52;100.00;100039.38;5059016;28;20132;-74
2022/11/18 08:19:52;;;;;;;9.10;4.00;;;;;;;6.57;100.00;100048.06;5057018;28;20036;-74
2022/11/18 08:22:19;;;;;;;12.70;4.13;;;;;;;6.59;100.00;100041.00;5069002;28;20028;-75
2022/11/18 08:24:46;;;;;;;7.90;3.72;;;;;;;6.60;100.00;100046.25;5053788;28;20119;-75
2022/11/18 08:27:12;;;;;;;12.88;3.70;;;;;;;6.61;100.00;100050.63;5065740;28;20036;-75
2022/11/18 08:29:38;;;;;;;6.65;3.50;;;;;;;6.61;100.00;100055.88;5056886;28;20506;-75
2022/11/18 08:32:05;;;;;;;11.02;4.03;;;;;;;6.64;100.00;100057.56;5087044;28;20041;-75
2022/11/18 08:34:30;;;;;;;7.45;3.53;;;;;;;6.65;100.00;100056.66;5070361;28;20040;-75
2022/11/18 08:36:56;;;;;;;5.75;3.20;;;;;;;6.68;100.00;100062.75;5073922;28;20565;-75
2022/11/18 08:39:21;;;;;;;9.90;3.55;;;;;;;6.68;100.00;100067.16;5091336;28;20844;-75
2022/11/18 08:41:47;;;;;;;9.85;3.47;;;;;;;6.71;100.00;100059.19;5091493;28;20134;-74
2022/11/18 08:44:15;;;;;;;7.53;3.03;;;;;;;6.72;100.00;100058.28;5087331;28;20036;-75
2022/11/18 08:46:41;;;;;;;10.90;3.75;;;;;;;6.76;100.00;100062.63;5090257;28;20377;-74
2022/11/18 08:49:07;;;;;;;7.28;3.05;;;;;;;6.83;100.00;100069.50;5070530;28;20037;-74
2022/11/18 08:51:33;;;;;;;8.63;3.20;;;;;;;6.85;100.00;100064.22;5082525;28;20106;-75
2022/11/18 08:53:58;;;;;;;7.97;3.42;;;;;;;6.94;100.00;100071.06;5079894;28;20051;-74
2022/11/18 08:56:24;;;;;;;10.75;3.20;;;;;;;7.00;100.00;100066.56;5068123;28;20043;-75
2022/11/18 08:58:50;;;;;;;12.00;3.92;;;;;;;7.08;100.00;100071.66;5077105;28;20059;-75
2022/11/18 09:01:16;;;;;;;10.07;3.38;;;;;;;7.14;100.00;100075.94;5066551;28;20381;-74
2022/11/18 09:03:42;;;;;;;9.48;3.50;;;;;;;7.16;100.00;100079.41;5073639;28;20051;-75
2022/11/18 09:06:13;;;;;;;9.90;3.45;;;;;;;7.15;100.00;100077.69;5088918;28;20031;-75
2022/11/18 09:08:39;;;;;;;5.65;3.00;;;;;;;7.13;100.00;100077.69;5078159;28;20075;-75
2022/11/18 09:11:13;;;;;;;13.90;3.92;;;;;;;7.10;100.00;100077.78;5073715;28;20182;-75
2022/11/18 09:13:39;;;;;;;11.75;4.63;;;;;;;7.07;100.00;100077.81;5082592;28;20495;-75
2022/11/18 09:16:06;;;;;;;10.68;3.92;;;;;;;7.10;100.00;100085.66;5071180;28;20044;-75
2022/11/18 09:18:31;;;;;;;9.88;3.70;;;;;;;7.09;100.00;100095.31;5070163;28;20048;-75
2022/11/18 09:21:04;;;;;;;8.88;4.43;;;;;;;7.13;100.00;100098.75;5070264;28;20020;-75
2022/11/18 09:23:31;;;;;;;9.00;3.85;;;;;;;7.13;100.00;100104.03;5058274;28;20472;-75
2022/11/18 09:26:01;;;;;;;11.15;5.03;;;;;;;7.13;100.00;100101.41;5055749;28;20033;-75
2022/11/18 09:28:28;;;;;;;9.15;3.35;;;;;;;7.16;100.00;100109.22;5055179;28;20029;-75
2022/11/18 09:30:55;;;;;;;10.00;4.50;;;;;;;7.22;100.00;100105.59;5054468;28;20376;-76
2022/11/18 09:33:21;;;;;;;8.40;3.58;;;;;;;7.33;100.00;100111.53;5051513;28;20049;-75
2022/11/18 09:35:47;;;;;;;10.65;3.83;;;;;;;7.40;100.00;100109.66;5069399;28;20087;-75
2022/11/18 09:38:13;;;;;;;10.45;3.83;;;;;;;7.49;100.00;100112.06;5065978;28;20026;-75
2022/11/18 09:41:08;;;;;;;10.95;3.90;;;;;;;7.61;100.00;100118.84;5053669;28;20131;-75
2022/11/18 09:44:01;;;;;;;11.98;4.03;;;;;;;7.64;100.00;100124.06;5041758;28;20056;-75
2022/11/18 09:47:01;;;;;;;10.15;4.28;;;;;;;7.66;100.00;100131.03;5064180;28;20505;-75
2022/11/18 09:49:30;;;;;;;6.22;3.72;;;;;;;7.66;100.00;100133.66;5064990;28;20135;-75
2022/11/18 09:52:00;;;;;;;18.40;4.72;;;;;;;7.74;100.00;100142.28;5066385;28;20115;-75
2022/11/18 09:54:30;;;;;;;15.93;4.20;;;;;;;7.83;100.00;100138.56;5087612;28;20039;-75
2022/11/18 09:56:56;;;;;;;8.93;3.55;;;;;;;7.93;100.00;100147.16;5080342;28;20062;-75
2022/11/18 09:59:26;;;;;;;10.90;4.00;;;;;;;7.97;100.00;100152.31;5090011;28;20036;-75
2022/11/18 10:01:57;;;;;;;8.10;3.47;;;;;;;8.01;100.00;100161.06;5088732;28;20107;-77
2022/11/18 10:04:22;;;;;;;12.85;3.72;;;;;;;8.04;100.00;100160.13;5083712;28;20472;-75
2022/11/18 10:06:49;;;;;;;14.48;3.90;;;;;;;8.05;100.00;100157.44;5062735;28;20039;-75
2022/11/18 10:09:34;;;;;;;10.50;3.90;;;;;;;8.07;100.00;100160.03;5070263;28;20399;-75
2022/11/18 10:12:40;;;;;;;11.05;3.78;;;;;;;8.12;100.00;100160.81;5081056;28;20060;-75
2022/11/18 10:15:18;;;;;;;11.00;4.10;;;;;;;8.17;100.00;100159.78;5034268;28;20432;-75
2022/11/18 10:18:01;;;;;;;8.38;2.97;;;;;;;8.24;100.00;100162.31;5073765;28;20040;-75
2022/11/18 10:21:11;;;;;;;6.97;3.40;;;;;;;8.32;100.00;100166.47;5079956;28;20069;-75
2022/11/18 10:23:52;;;;;;;13.07;3.50;;;;;;;8.38;100.00;100169.00;5060628;28;20115;-75
2022/11/18 10:26:54;;;;;;;8.48;3.13;;;;;;;8.52;99.61;100168.69;5083871;28;20032;-75
2022/11/18 10:29:20;;;;;;;8.73;3.30;;;;;;;8.50;98.83;100173.13;4990717;28;20041;-76
2022/11/18 10:31:58;;;;;;;8.77;3.00;;;;;;;8.51;98.15;100177.50;5046608;28;20358;-75
2022/11/18 10:34:23;;;;;;;9.18;2.97;;;;;;;8.51;97.43;100177.50;5064616;28;20078;-76
2022/11/18 10:37:28;;;;;;;14.35;3.05;;;;;;;8.59;98.86;100185.25;5075888;28;20040;-76
2022/11/18 10:39:56;;;;;;;9.68;3.22;;;;;;;8.72;100.00;100184.03;5023292;28;20041;-76
2022/11/18 10:42:31;;;;;;;9.13;3.58;;;;;;;8.83;98.05;100182.00;5062582;28;20052;-75
2022/11/18 10:45:15;;;;;;;9.35;3.40;;;;;;;8.92;98.21;100180.00;5083407;28;20093;-75
2022/11/18 10:47:40;;;;;;;10.05;3.15;;;;;;;8.95;97.92;100194.03;5080207;28;20125;-76
2022/11/18 10:50:26;;;;;;;5.63;2.60;;;;;;;8.97;96.91;100186.03;5056969;28;20033;-76
2022/11/18 10:52:52;;;;;;;11.40;2.88;;;;;;;8.97;95.79;100192.19;5086618;28;20036;-76
2022/11/18 10:55:21;;;;;;;6.75;2.85;;;;;;;8.94;95.33;100192.28;5084867;28;20041;-76
2022/11/18 10:57:49;;;;;;;11.45;2.65;;;;;;;8.90;95.53;100190.63;5063528;28;20033;-77
2022/11/18 11:00:41;;;;;;;7.90;2.50;;;;;;;8.91;96.01;100194.13;5053338;28;20032;-76
2022/11/18 11:03:44;;;;;;;7.82;2.75;;;;;;;8.97;95.42;100202.75;5070795;28;20040;-76
2022/11/18 11:06:24;;;;;;;8.38;2.70;;;;;;;8.93;94.76;100202.91;5070923;28;20074;-76
2022/11/18 11:08:55;;;;;;;15.63;3.00;;;;;;;8.89;94.54;100210.00;5057606;28;20051;-76
2022/11/18 11:11:33;;;;;;;11.02;2.30;;;;;;;8.93;95.47;100205.53;5071200;28;20032;-76
2022/11/18 11:14:17;;;;;;;9.27;2.67;;;;;;;8.92;95.32;100206.41;5070732;28;20033;-76
2022/11/18 11:16:58;;;;;;;8.68;4.10;;;;;;;8.92;94.80;100206.41;5067152;28;20028;-76
2022/11/18 11:19:27;;;;;;;;;;;;;;;8.92;95.23;100211.69;5042566;28;20037;-76
2022/11/18 11:21:53;;;;;;;7.20;2.67;;;;;;;8.84;94.04;100206.63;5066891;28;19913;-76
2022/11/18 11:24:23;;;;;;;12.52;3.33;;;;;;;8.82;94.79;100213.69;5049439;28;20047;-76
2022/11/18 11:27:20;;;;;;;10.85;2.92;;;;;;;8.79;94.76;100216.44;5065479;28;20043;-76
2022/11/18 11:30:04;;;;;;;12.50;2.75;;;;;;;8.77;94.82;100216.44;5086840;28;20040;-76
2022/11/18 11:32:50;;;;;;;7.30;2.65;;;;;;;8.79;95.24;100225.22;5070441;28;20032;-76
2022/11/18 11:35:21;;;;;;;10.55;2.78;;;;;;;8.78;95.56;100212.06;5061486;28;20025;-76
2022/11/18 11:37:55;;;;;;;8.65;2.60;;;;;;;8.82;96.63;100213.69;5086185;28;20043;-76
2022/11/18 11:40:36;;;;;;;6.80;2.83;;;;;;;8.85;96.91;100232.09;5070946;28;20035;-76
2022/11/18 11:43:29;;;;;;;7.05;2.85;;;;;;;8.87;97.16;100232.06;5076484;28;20043;-75
2022/11/18 11:46:15;;;;;;;10.88;2.85;;;;;;;8.85;97.68;100221.53;5076440;28;20387;-74
2022/11/18 11:49:05;;;;;;;16.15;3.30;;;;;;;8.82;98.33;100230.41;5084021;28;20057;-74
2022/11/18 11:51:35;;;;;;;14.57;3.13;;;;;;;8.79;98.25;100230.50;5075468;28;20052;-74
2022/11/18 11:54:13;;;;;;;14.20;3.97;;;;;;;8.80;99.33;100234.00;5076148;28;20051;-76